Airfield :
LOGIN :

Register | Disclaimer

   EN    FR    IT 

 










Legend :    VFR   Marginal VFR   IFR   Intensive IFR   Very Intensive IFR
Visi :
Ceiling :
>= 8 km
>= 3000ft
5 to 8 km
1000 to 3000 ft
1500m to 5 km
500 to 1000 ft
800 to 1500m
200 to 500 ft
< 800m
< 200 ft
Symbols :   Thunderstorms  Fog  Heavy snow  Heavy precipitations  Wind > 20 kt
SIGMETs :     Misc.  Thunderstorms  Icing  Turbulence  Mountain Waves  Volcanic Ashes







- Airport Elevation : 587 ft
- IATA code : XCR
- Download approach charts


LFOK - Chalons Vatry

CURRENT METAR :
  • 160800Z AUTO 22006KT 0350 R10/0550N R28/0450N FG VV/// 03/03 Q1012 NOSIG

EXPIRED METARs :
  • 160730Z AUTO 22005KT 0500 0450 R10/0600N R28/0650N FG VV/// 03/03 Q1012 BECMG 0300 FG
  • 160700Z AUTO 21003KT 170V250 0550 0500 R10/0800N R28/0600N FG VV/// 03/03 Q1012 BECMG 0300 FG
  • 160630Z AUTO 24006KT 0700 0550 R10/1200N R28/0700N FG VV/// 03/03 Q1011 BECMG 0300 FG
  • 160600Z AUTO 25007KT 0550 0500 R10/0800U R28/0600N FG VV/// 03/03 Q1011 BECMG 0300 FG
  • 160530Z AUTO 25005KT 0550 0500 R10/0900D R28/0650N FG VV/// 03/02 Q1011 BECMG 0300 FG

TAF TAF LFOK
Valid from the 16 at 06:00 until the 17 at 06:00 UTC


160500Z 1606/1706 22005KT 0300 FG VV///
TEMPO 1610/1613 2000 RA OVC003
PROB30
TEMPO 1613/1616 4000 BR BKN007
BECMG 1622/1624 2000 RA OVC003
BECMG 1703/1706 BR
No reported NOTAMs for that airfield.



MET'MAP, your aeronautical weather chart ! - Copyright ORBIFLY December 2007 - Disclaimer

ORBIFLY MET'MAP TEAM :

Programming & Development : Alexandra Zaïnal
Concept & Development : Baudouin d'Aumeries
Co-Development & Prog : Marc-Olivier Méhu
Technical & hardware support : Manuel Goepfert

Contact : metmap@orbifly.com




SOURCES & CREDITS :

   NOAA